Gross, Kansas
Current Conditions -  °F | °C
As of 12:35 AM on Friday 19 Dec 2014 (Local Time) from KPTS Reporting Station
Haze Haze  
Wind Chill: 36°   Ceiling: 500
Heat Index: 36°   Visibility: 4mi
Dew Point: 36°   Wind: 3mph
Humidity: 100%   Direction: 40°NE
Pressure: 30.23"   Gusts: NA
Location:  37.6277°N, 94.7013°W
Report Text: KPTS 190635Z AUTO 04003KT 4SM BR OVC005 02/02 A3023 RMK AO2 T00200021
Loading
Personal Weather Stations






























Interactive Weather Map New forecast layout! Learn more

10-Day Weather Forecast

Advertisements
Track Severe Weather on mobile